Time;durP1;ratioP1;P1;durP2;ratioP2;P2;SDS_P1;SDS_P2;PMS_P1;PMS_P2;Temp;Humidity;BMP_temperature;BMP_pressure;BME280_temperature;BME280_humidity;BME280_pressure;Samples;Min_cycle;Max_cycle;Signal;HPM_P1;HPM_P2
2023/08/28 00:01:13;;;;;;;4.47;1.10;;;;;;;;;;5042073;28;20044;-73
2023/08/28 00:03:41;;;;;;;6.78;1.33;;;;;;;;;;5021848;28;20075;-74
2023/08/28 00:06:08;;;;;;;4.70;1.40;;;;;;;;;;5021353;28;20041;-73
2023/08/28 00:08:35;;;;;;;6.05;1.50;;;;;;;;;;5018152;28;20024;-73
2023/08/28 00:11:02;;;;;;;5.47;1.50;;;;;;;;;;5026398;28;20037;-73
2023/08/28 00:13:28;;;;;;;5.72;1.38;;;;;;;;;;5028405;28;20655;-73
2023/08/28 00:15:55;;;;;;;4.63;1.20;;;;;;;;;;5044970;28;20556;-73
2023/08/28 00:18:22;;;;;;;8.85;1.73;;;;;;;;;;5039312;28;20036;-72
2023/08/28 00:20:48;;;;;;;6.00;1.50;;;;;;;;;;5022248;28;20043;-73
2023/08/28 00:23:14;;;;;;;4.75;1.20;;;;;;;;;;5026762;28;20036;-73
2023/08/28 00:25:40;;;;;;;5.90;1.30;;;;;;;;;;5018951;28;20036;-73
2023/08/28 00:28:07;;;;;;;4.80;1.30;;;;;;;;;;5041687;28;20094;-73
2023/08/28 00:30:33;;;;;;;5.13;1.27;;;;;;;;;;5041469;28;20032;-72
2023/08/28 00:33:00;;;;;;;7.50;1.40;;;;;;;;;;5040501;28;20021;-75
2023/08/28 00:35:27;;;;;;;4.25;1.15;;;;;;;;;;5018020;28;20399;-73
2023/08/28 00:37:53;;;;;;;7.95;1.50;;;;;;;;;;5022214;28;20114;-72
2023/08/28 00:40:19;;;;;;;7.28;1.60;;;;;;;;;;5037430;28;20482;-73
2023/08/28 00:42:45;;;;;;;4.68;1.25;;;;;;;;;;5023489;28;20370;-72
2023/08/28 00:45:11;;;;;;;6.88;1.50;;;;;;;;;;5021701;28;20778;-73
2023/08/28 00:47:38;;;;;;;5.68;1.17;;;;;;;;;;5023991;28;20027;-73
2023/08/28 00:50:05;;;;;;;5.82;1.40;;;;;;;;;;5019636;28;20039;-73
2023/08/28 00:52:31;;;;;;;6.30;1.45;;;;;;;;;;5024614;28;20056;-73
2023/08/28 00:54:57;;;;;;;6.50;1.60;;;;;;;;;;5040065;28;20056;-74
2023/08/28 00:57:24;;;;;;;6.75;1.80;;;;;;;;;;5025873;28;20048;-72
2023/08/28 00:59:50;;;;;;;5.82;1.60;;;;;;;;;;5040123;28;20289;-74
2023/08/28 01:02:17;;;;;;;6.25;1.40;;;;;;;;;;5020516;28;20395;-74
2023/08/28 01:04:43;;;;;;;8.30;1.77;;;;;;;;;;5041603;28;20143;-72
2023/08/28 01:07:23;;;;;;;4.88;1.30;;;;;;;;;;5024860;28;20113;-73
2023/08/28 01:09:59;;;;;;;6.88;1.70;;;;;;;;;;5038963;28;20057;-73
2023/08/28 01:12:34;;;;;;;5.80;1.50;;;;;;;;;;5038165;28;20635;-72
2023/08/28 01:15:10;;;;;;;6.93;1.40;;;;;;;;;;5024275;28;20266;-72
2023/08/28 01:17:37;;;;;;;7.10;1.63;;;;;;;;;;5038595;28;20766;-73
2023/08/28 01:20:04;;;;;;;6.47;1.63;;;;;;;;;;5037518;28;20451;-72
2023/08/28 01:22:40;;;;;;;8.73;1.23;;;;;;;;;;5034747;28;20346;-72
2023/08/28 01:25:09;;;;;;;8.35;1.55;;;;;;;;;;5020145;28;20110;-72
2023/08/28 01:27:36;;;;;;;6.20;1.55;;;;;;;;;;5021633;28;20035;-72
2023/08/28 01:30:08;;;;;;;6.72;1.70;;;;;;;;;;5041554;28;20028;-72
2023/08/28 01:32:34;;;;;;;5.93;1.55;;;;;;;;;;5019047;28;20106;-73
2023/08/28 01:35:01;;;;;;;6.53;1.60;;;;;;;;;;5018616;28;20033;-73
2023/08/28 01:37:31;;;;;;;8.15;1.60;;;;;;;;;;5034940;28;20112;-72
2023/08/28 01:40:00;;;;;;;6.10;1.60;;;;;;;;;;5043046;28;20482;-72
2023/08/28 01:42:26;;;;;;;7.60;1.67;;;;;;;;;;5032739;28;20056;-72
2023/08/28 01:44:54;;;;;;;5.60;1.30;;;;;;;;;;5018288;28;20495;-72
2023/08/28 01:47:24;;;;;;;7.70;1.67;;;;;;;;;;5036769;28;20812;-72
2023/08/28 01:49:53;;;;;;;6.20;1.50;;;;;;;;;;5035274;28;20111;-74
2023/08/28 01:52:20;;;;;;;6.38;1.52;;;;;;;;;;5020475;28;20036;-72
2023/08/28 01:54:46;;;;;;;6.97;1.73;;;;;;;;;;5021833;28;20256;-73
2023/08/28 01:57:12;;;;;;;6.28;1.40;;;;;;;;;;5041948;28;20118;-72
2023/08/28 01:59:38;;;;;;;4.00;1.33;;;;;;;;;;5035765;28;20021;-72
2023/08/28 02:02:04;;;;;;;5.63;1.38;;;;;;;;;;5025044;28;20658;-73
2023/08/28 02:04:31;;;;;;;5.70;1.58;;;;;;;;;;5020370;28;20785;-73
2023/08/28 02:06:57;;;;;;;;;;;;;;;;;;5019479;28;20059;-72
2023/08/28 02:09:23;;;;;;;5.65;1.25;;;;;;;;;;5017519;28;19913;-73
2023/08/28 02:11:49;;;;;;;4.00;1.27;;;;;;;;;;5024445;28;20020;-73
2023/08/28 02:14:15;;;;;;;;;;;;;;;;;;5037853;28;20183;-72
2023/08/28 02:16:41;;;;;;;7.18;1.33;;;;;;;;;;5037011;28;20497;-72
2023/08/28 02:19:07;;;;;;;7.45;1.77;;;;;;;;;;5025410;28;20124;-73
2023/08/28 02:21:34;;;;;;;5.10;1.30;;;;;;;;;;5038509;28;20368;-72
2023/08/28 02:24:00;;;;;;;9.68;1.52;;;;;;;;;;5036625;28;20025;-73
2023/08/28 02:26:26;;;;;;;5.30;1.52;;;;;;;;;;5037846;28;20160;-72
2023/08/28 02:28:53;;;;;;;5.35;1.42;;;;;;;;;;5038495;28;20082;-72
2023/08/28 02:31:19;;;;;;;5.43;1.35;;;;;;;;;;5036242;28;20040;-72
2023/08/28 02:33:45;;;;;;;5.32;1.20;;;;;;;;;;5036726;28;20325;-72
2023/08/28 02:36:12;;;;;;;6.15;1.58;;;;;;;;;;5023670;28;20120;-72
2023/08/28 02:38:38;;;;;;;4.60;1.30;;;;;;;;;;5036440;28;20059;-73
2023/08/28 02:41:05;;;;;;;6.05;1.40;;;;;;;;;;5039378;28;20335;-73
2023/08/28 02:43:31;;;;;;;6.50;1.70;;;;;;;;;;5019247;28;20592;-75
2023/08/28 02:45:57;;;;;;;5.68;1.48;;;;;;;;;;5036949;28;20659;-72
2023/08/28 02:48:23;;;;;;;6.32;1.35;;;;;;;;;;5031616;28;20031;-73
2023/08/28 02:50:50;;;;;;;;;;;;;;;;;;5038034;28;20600;-73
2023/08/28 02:53:17;;;;;;;9.35;1.90;;;;;;;;;;5039388;28;20023;-73
2023/08/28 02:55:43;;;;;;;7.30;1.52;;;;;;;;;;5025255;28;20132;-73
2023/08/28 02:58:09;;;;;;;;;;;;;;;;;;5040328;28;20605;-73
2023/08/28 03:00:37;;;;;;;7.28;1.52;;;;;;;;;;5020852;28;20512;-73
2023/08/28 03:03:04;;;;;;;5.35;1.50;;;;;;;;;;5038557;28;20025;-73
2023/08/28 03:05:30;;;;;;;6.07;1.67;;;;;;;;;;5036449;28;20036;-73
2023/08/28 03:07:56;;;;;;;4.60;1.48;;;;;;;;;;5021890;28;20841;-72
2023/08/28 03:10:22;;;;;;;;;;;;;;;;;;5033832;28;20411;-72
2023/08/28 03:12:48;;;;;;;4.93;1.17;;;;;;;;;;5038502;28;20211;-72
2023/08/28 03:15:14;;;;;;;5.60;1.50;;;;;;;;;;5035658;28;20290;-74
2023/08/28 03:17:40;;;;;;;4.68;1.50;;;;;;;;;;5037137;28;20043;-72
2023/08/28 03:20:09;;;;;;;7.68;1.67;;;;;;;;;;5036869;28;20434;-73
2023/08/28 03:22:35;;;;;;;6.30;1.70;;;;;;;;;;5034212;28;20053;-72
2023/08/28 03:25:01;;;;;;;7.15;1.70;;;;;;;;;;5027904;28;20531;-72
2023/08/28 03:27:27;;;;;;;7.82;1.88;;;;;;;;;;5041067;28;20060;-74
2023/08/28 03:29:54;;;;;;;6.93;1.40;;;;;;;;;;5040988;28;20025;-75
2023/08/28 03:32:20;;;;;;;5.15;1.55;;;;;;;;;;5020640;28;20128;-72
2023/08/28 03:34:46;;;;;;;;;;;;;;;;;;5028034;28;20138;-73
2023/08/28 03:37:12;;;;;;;6.95;1.75;;;;;;;;;;5044350;28;19912;-72
2023/08/28 03:39:38;;;;;;;6.10;1.85;;;;;;;;;;5023691;28;20032;-73
2023/08/28 03:42:04;;;;;;;;;;;;;;;;;;5026557;28;20425;-72
2023/08/28 03:44:30;;;;;;;6.70;1.63;;;;;;;;;;5020281;28;20443;-75
2023/08/28 03:46:56;;;;;;;8.20;1.80;;;;;;;;;;5040951;28;20063;-73
2023/08/28 03:49:22;;;;;;;;;;;;;;;;;;5022468;28;20133;-72
2023/08/28 03:51:49;;;;;;;7.47;1.98;;;;;;;;;;5023140;28;19977;-72
2023/08/28 03:54:15;;;;;;;5.68;1.63;;;;;;;;;;5042676;28;20044;-72
2023/08/28 03:56:41;;;;;;;;;;;;;;;;;;5019225;28;20032;-72
2023/08/28 03:59:07;;;;;;;5.82;1.67;;;;;;;;;;5026650;28;20251;-72
2023/08/28 04:01:34;;;;;;;12.07;1.92;;;;;;;;;;5020068;28;20919;-73
2023/08/28 04:04:00;;;;;;;5.60;1.48;;;;;;;;;;5042878;28;20072;-72
2023/08/28 04:06:26;;;;;;;;;;;;;;;;;;5040440;28;20562;-73
2023/08/28 04:08:52;;;;;;;7.45;1.67;;;;;;;;;;5041609;28;19923;-74
2023/08/28 04:11:18;;;;;;;;;;;;;;;;;;5042316;28;20361;-72
2023/08/28 04:13:44;;;;;;;8.23;2.00;;;;;;;;;;5026898;28;21367;-73
2023/08/28 04:16:10;;;;;;;;;;;;;;;;;;5026512;28;20275;-74
2023/08/28 04:18:36;;;;;;;8.10;2.20;;;;;;;;;;5023887;28;19912;-73
2023/08/28 04:21:05;;;;;;;6.70;1.88;;;;;;;;;;5022344;28;20029;-73
2023/08/28 04:23:31;;;;;;;8.82;1.80;;;;;;;;;;5037207;28;20117;-73
2023/08/28 04:26:00;;;;;;;8.13;1.60;;;;;;;;;;5038786;28;20036;-73
2023/08/28 04:28:26;;;;;;;6.70;1.52;;;;;;;;;;5039987;28;20036;-74
2023/08/28 04:30:52;;;;;;;6.80;1.77;;;;;;;;;;5022774;28;20673;-73
2023/08/28 04:33:18;;;;;;;5.10;1.50;;;;;;;;;;5038863;28;20593;-73
2023/08/28 04:35:44;;;;;;;;;;;;;;;;;;5039573;28;20017;-73
2023/08/28 04:38:10;;;;;;;8.13;1.77;;;;;;;;;;5042472;28;19919;-72
2023/08/28 04:40:36;;;;;;;9.05;1.90;;;;;;;;;;5037426;28;22522;-72
2023/08/28 04:43:02;;;;;;;7.30;1.90;;;;;;;;;;5022298;28;20497;-73
2023/08/28 04:45:29;;;;;;;7.70;2.10;;;;;;;;;;5023901;28;20040;-72
2023/08/28 04:47:55;;;;;;;7.85;2.05;;;;;;;;;;5038509;28;20028;-73
2023/08/28 04:50:21;;;;;;;9.32;1.80;;;;;;;;;;5019984;28;20127;-73
2023/08/28 04:52:47;;;;;;;6.40;1.88;;;;;;;;;;5036650;28;20028;-73
2023/08/28 04:55:13;;;;;;;6.55;1.63;;;;;;;;;;5038442;28;20123;-72
2023/08/28 04:57:40;;;;;;;6.40;1.42;;;;;;;;;;5019019;28;20110;-72
2023/08/28 05:00:06;;;;;;;7.25;1.33;;;;;;;;;;5041265;28;20697;-72
2023/08/28 05:02:32;;;;;;;7.15;1.50;;;;;;;;;;5038943;28;20819;-73
2023/08/28 05:04:58;;;;;;;;;;;;;;;;;;5025853;28;20299;-72
2023/08/28 05:07:24;;;;;;;8.98;1.55;;;;;;;;;;5039514;28;19912;-72
2023/08/28 05:09:50;;;;;;;6.70;1.65;;;;;;;;;;5022533;28;20067;-73
2023/08/28 05:12:17;;;;;;;7.18;1.83;;;;;;;;;;5042691;28;20039;-72
2023/08/28 05:14:43;;;;;;;7.78;2.00;;;;;;;;;;5040304;28;20028;-73
2023/08/28 05:17:09;;;;;;;7.72;1.73;;;;;;;;;;5044037;28;20028;-73
2023/08/28 05:19:35;;;;;;;7.25;1.80;;;;;;;;;;5019937;28;20024;-72
2023/08/28 05:22:01;;;;;;;7.90;1.90;;;;;;;;;;5022533;28;20063;-73
2023/08/28 05:24:28;;;;;;;10.35;2.92;;;;;;;;;;5013479;28;20814;-73
2023/08/28 05:26:54;;;;;;;10.73;3.13;;;;;;;;;;5038449;28;20036;-72
2023/08/28 05:29:20;;;;;;;9.35;2.63;;;;;;;;;;5022967;28;20033;-72
2023/08/28 05:31:46;;;;;;;8.30;2.20;;;;;;;;;;5022936;28;20064;-72
2023/08/28 05:34:12;;;;;;;11.63;2.47;;;;;;;;;;5022937;28;20623;-72
2023/08/28 05:36:38;;;;;;;7.97;1.98;;;;;;;;;;5022032;28;20208;-72
2023/08/28 05:39:04;;;;;;;7.05;1.85;;;;;;;;;;5022738;28;20047;-72
2023/08/28 05:41:31;;;;;;;7.10;1.48;;;;;;;;;;5022762;28;20072;-73
2023/08/28 05:43:57;;;;;;;10.88;2.30;;;;;;;;;;5040661;28;20645;-72
2023/08/28 05:46:23;;;;;;;8.63;1.88;;;;;;;;;;5022702;28;20113;-74
2023/08/28 05:48:49;;;;;;;8.18;2.05;;;;;;;;;;5024965;28;20028;-72
2023/08/28 05:51:15;;;;;;;7.55;2.20;;;;;;;;;;5024583;28;20048;-72
2023/08/28 05:53:41;;;;;;;10.32;3.13;;;;;;;;;;5018717;28;20040;-72
2023/08/28 05:56:07;;;;;;;6.97;2.50;;;;;;;;;;5038770;28;20035;-72
2023/08/28 05:58:33;;;;;;;7.82;1.88;;;;;;;;;;5017361;28;20029;-72
2023/08/28 06:01:00;;;;;;;6.55;1.58;;;;;;;;;;5039953;28;20093;-72
2023/08/28 06:03:26;;;;;;;8.23;1.77;;;;;;;;;;5019604;28;20056;-73
2023/08/28 06:05:52;;;;;;;5.65;1.30;;;;;;;;;;5040553;28;20036;-73
2023/08/28 06:08:18;;;;;;;6.18;1.40;;;;;;;;;;5019721;28;20479;-72
2023/08/28 06:10:44;;;;;;;8.60;1.85;;;;;;;;;;5039521;28;20256;-72
2023/08/28 06:13:11;;;;;;;7.88;1.63;;;;;;;;;;5039942;28;20551;-72
2023/08/28 06:15:38;;;;;;;8.30;1.60;;;;;;;;;;5021631;28;20030;-72
2023/08/28 06:18:04;;;;;;;11.25;1.85;;;;;;;;;;5039469;28;20028;-72
2023/08/28 06:20:30;;;;;;;10.10;2.03;;;;;;;;;;5035106;28;20682;-73
2023/08/28 06:22:57;;;;;;;10.75;2.38;;;;;;;;;;5020904;28;20059;-72
2023/08/28 06:25:23;;;;;;;10.27;2.30;;;;;;;;;;5032875;28;20048;-73
2023/08/28 06:27:49;;;;;;;10.20;2.55;;;;;;;;;;5038882;28;20107;-73
2023/08/28 06:30:15;;;;;;;7.97;2.20;;;;;;;;;;5022358;28;20423;-72
2023/08/28 06:32:41;;;;;;;6.00;1.75;;;;;;;;;;5019050;28;20655;-72
2023/08/28 06:35:08;;;;;;;8.85;2.45;;;;;;;;;;5022007;28;20064;-72
2023/08/28 06:37:34;;;;;;;6.38;1.75;;;;;;;;;;5019473;28;20117;-73
2023/08/28 06:40:02;;;;;;;6.35;1.55;;;;;;;;;;5038059;28;20083;-73
2023/08/28 06:42:28;;;;;;;11.13;2.05;;;;;;;;;;5037700;28;20048;-73
2023/08/28 06:44:55;;;;;;;10.75;2.38;;;;;;;;;;5021488;28;20029;-74
2023/08/28 06:47:21;;;;;;;7.50;2.35;;;;;;;;;;5020319;28;20083;-73
2023/08/28 06:49:47;;;;;;;6.72;1.85;;;;;;;;;;5027715;28;20435;-74
2023/08/28 06:52:13;;;;;;;11.20;2.80;;;;;;;;;;5041857;28;20028;-72
2023/08/28 06:54:39;;;;;;;9.38;3.50;;;;;;;;;;5017909;28;20153;-72
2023/08/28 06:57:05;;;;;;;11.38;3.72;;;;;;;;;;5022221;28;20108;-72
2023/08/28 06:59:31;;;;;;;10.70;4.10;;;;;;;;;;5018037;28;20409;-72
2023/08/28 07:01:58;;;;;;;12.43;4.18;;;;;;;;;;5046914;28;20024;-72
2023/08/28 07:04:24;;;;;;;21.85;5.93;;;;;;;;;;5043971;28;20032;-73
2023/08/28 07:06:51;;;;;;;13.60;5.20;;;;;;;;;;5027825;28;20082;-72
2023/08/28 07:09:17;;;;;;;12.43;5.32;;;;;;;;;;5040652;28;20105;-72
2023/08/28 07:11:43;;;;;;;13.23;4.40;;;;;;;;;;5023490;28;20039;-73
2023/08/28 07:14:09;;;;;;;10.88;3.70;;;;;;;;;;5027399;28;20390;-72
2023/08/28 07:16:35;;;;;;;8.90;2.60;;;;;;;;;;5023867;28;20044;-73
2023/08/28 07:19:02;;;;;;;7.47;2.17;;;;;;;;;;5045206;28;20719;-73
2023/08/28 07:21:28;;;;;;;10.27;2.08;;;;;;;;;;5017503;28;20087;-73
2023/08/28 07:23:54;;;;;;;9.75;4.05;;;;;;;;;;5020801;28;20033;-72
2023/08/28 07:26:20;;;;;;;17.55;5.22;;;;;;;;;;5023103;28;20486;-73
2023/08/28 07:28:48;;;;;;;12.57;3.40;;;;;;;;;;5026817;28;20063;-73
2023/08/28 07:31:14;;;;;;;9.57;3.38;;;;;;;;;;5022246;28;20052;-72
2023/08/28 07:33:41;;;;;;;9.90;3.50;;;;;;;;;;5037709;28;20024;-76
2023/08/28 07:36:07;;;;;;;12.02;3.58;;;;;;;;;;5026829;28;20032;-72
2023/08/28 07:38:33;;;;;;;9.70;3.53;;;;;;;;;;5036265;28;20773;-74
2023/08/28 07:40:59;;;;;;;8.80;2.67;;;;;;;;;;5024909;28;20514;-73
2023/08/28 07:43:25;;;;;;;7.40;2.47;;;;;;;;;;5020282;28;20317;-73
2023/08/28 07:45:51;;;;;;;8.52;2.70;;;;;;;;;;5040499;28;20028;-74
2023/08/28 07:48:18;;;;;;;6.95;1.90;;;;;;;;;;5038617;28;20036;-73
2023/08/28 07:50:45;;;;;;;10.38;2.45;;;;;;;;;;5024554;28;20036;-74
2023/08/28 07:53:12;;;;;;;5.75;1.98;;;;;;;;;;5021315;28;20153;-73
2023/08/28 07:55:38;;;;;;;6.72;1.42;;;;;;;;;;5019649;28;20032;-74
2023/08/28 07:58:04;;;;;;;7.72;1.40;;;;;;;;;;5018510;28;20033;-74
2023/08/28 08:00:34;;;;;;;8.07;1.33;;;;;;;;;;5021767;28;20025;-74
2023/08/28 08:03:02;;;;;;;7.03;1.15;;;;;;;;;;5039870;28;20124;-74
2023/08/28 08:05:28;;;;;;;8.02;1.40;;;;;;;;;;5023121;28;20036;-74
2023/08/28 08:07:54;;;;;;;5.32;1.20;;;;;;;;;;5040255;28;20395;-74
2023/08/28 08:10:20;;;;;;;5.38;1.33;;;;;;;;;;5020573;28;20446;-73
2023/08/28 08:12:46;;;;;;;5.93;1.15;;;;;;;;;;5041271;28;20115;-74
2023/08/28 08:15:12;;;;;;;6.78;1.15;;;;;;;;;;5039598;28;20028;-74
2023/08/28 08:17:39;;;;;;;5.00;1.10;;;;;;;;;;5036989;28;20029;-73
2023/08/28 08:20:10;;;;;;;7.38;1.30;;;;;;;;;;5021260;28;20156;-74
2023/08/28 08:22:36;;;;;;;7.05;1.58;;;;;;;;;;5034550;28;20036;-73
2023/08/28 08:25:03;;;;;;;6.53;1.33;;;;;;;;;;5021215;28;20032;-73
2023/08/28 08:27:29;;;;;;;6.57;1.38;;;;;;;;;;5016535;28;20352;-73
2023/08/28 08:29:55;;;;;;;7.28;1.40;;;;;;;;;;5023990;28;21075;-73
2023/08/28 08:32:21;;;;;;;6.78;1.20;;;;;;;;;;5037154;28;20039;-72
2023/08/28 08:34:47;;;;;;;8.88;1.88;;;;;;;;;;5022753;28;20093;-73
2023/08/28 08:37:14;;;;;;;14.40;2.75;;;;;;;;;;5036827;28;20029;-72
2023/08/28 08:39:41;;;;;;;5.72;1.33;;;;;;;;;;5023213;28;20487;-70
2023/08/28 08:42:08;;;;;;;8.40;1.58;;;;;;;;;;5041505;28;20053;-74
2023/08/28 08:44:34;;;;;;;8.07;1.50;;;;;;;;;;5017514;28;20429;-75
2023/08/28 08:47:03;;;;;;;9.60;1.60;;;;;;;;;;5042016;28;20109;-73
2023/08/28 08:49:31;;;;;;;7.03;1.45;;;;;;;;;;5012124;28;20391;-74
2023/08/28 08:51:59;;;;;;;8.48;1.63;;;;;;;;;;5020512;28;20463;-75
2023/08/28 08:54:30;;;;;;;7.43;1.48;;;;;;;;;;5033305;28;20566;-73
2023/08/28 08:57:02;;;;;;;6.97;1.38;;;;;;;;;;5022903;28;20020;-73
2023/08/28 08:59:29;;;;;;;8.93;1.60;;;;;;;;;;5036337;28;20359;-75
2023/08/28 09:01:55;;;;;;;7.03;1.63;;;;;;;;;;5036017;28;20036;-75
2023/08/28 09:04:22;;;;;;;7.13;1.40;;;;;;;;;;5036271;28;20339;-73
2023/08/28 09:06:49;;;;;;;9.20;1.70;;;;;;;;;;5041835;28;20451;-73
2023/08/28 09:09:16;;;;;;;7.18;1.70;;;;;;;;;;5041995;28;20193;-76
2023/08/28 09:11:45;;;;;;;7.43;1.30;;;;;;;;;;5019282;28;20032;-73
2023/08/28 09:14:12;;;;;;;6.72;1.42;;;;;;;;;;5023216;28;20020;-74
2023/08/28 09:16:38;;;;;;;7.18;1.50;;;;;;;;;;5036759;28;20098;-74
2023/08/28 09:19:04;;;;;;;9.30;1.70;;;;;;;;;;5027211;28;20058;-73
2023/08/28 09:21:35;;;;;;;9.50;1.70;;;;;;;;;;5019729;28;20356;-74
2023/08/28 09:24:01;;;;;;;8.27;2.85;;;;;;;;;;5033877;28;20400;-76
2023/08/28 09:26:28;;;;;;;8.85;2.00;;;;;;;;;;5036045;28;20515;-74
2023/08/28 09:29:00;;;;;;;7.45;1.40;;;;;;;;;;5024773;28;20279;-74
2023/08/28 09:31:32;;;;;;;7.00;1.42;;;;;;;;;;5034376;28;20047;-74
2023/08/28 09:33:59;;;;;;;7.07;1.50;;;;;;;;;;5042077;28;20048;-73
2023/08/28 09:36:25;;;;;;;6.70;1.45;;;;;;;;;;5019485;28;20028;-76
2023/08/28 09:38:51;;;;;;;6.80;1.48;;;;;;;;;;5038361;28;20099;-74
2023/08/28 09:41:18;;;;;;;5.65;1.13;;;;;;;;;;5015472;28;20067;-74
2023/08/28 09:43:51;;;;;;;5.93;1.10;;;;;;;;;;5055521;27;20449;-74
2023/08/28 09:46:18;;;;;;;6.63;1.33;;;;;;;;;;5048377;28;20029;-74
2023/08/28 09:48:44;;;;;;;7.70;1.60;;;;;;;;;;5053813;28;20449;-74
2023/08/28 09:51:10;;;;;;;6.07;1.33;;;;;;;;;;5048255;28;20032;-74
2023/08/28 09:53:36;;;;;;;7.35;1.50;;;;;;;;;;5050853;28;20028;-74
2023/08/28 09:56:03;;;;;;;6.63;1.20;;;;;;;;;;5054597;28;20055;-74
2023/08/28 09:58:29;;;;;;;6.30;1.50;;;;;;;;;;5050563;28;20438;-74
2023/08/28 10:00:56;;;;;;;8.18;1.58;;;;;;;;;;5051105;28;20588;-74
2023/08/28 10:03:24;;;;;;;6.07;1.35;;;;;;;;;;5047733;28;20235;-75
2023/08/28 10:05:51;;;;;;;5.75;1.10;;;;;;;;;;5051749;28;20029;-76
2023/08/28 10:08:17;;;;;;;6.70;1.10;;;;;;;;;;5054899;28;20489;-75
2023/08/28 10:10:47;;;;;;;6.95;1.35;;;;;;;;;;5049731;28;20039;-75
2023/08/28 10:13:20;;;;;;;5.90;1.15;;;;;;;;;;5050941;28;20143;-75
2023/08/28 10:16:01;;;;;;;5.10;1.20;;;;;;;;;;5051433;28;20534;-75
2023/08/28 10:18:32;;;;;;;7.95;1.40;;;;;;;;;;5051197;28;20055;-76
2023/08/28 10:20:59;;;;;;;11.30;1.33;;;;;;;;;;5053154;28;20119;-75
2023/08/28 10:23:25;;;;;;;7.72;1.23;;;;;;;;;;5045803;28;20033;-75
2023/08/28 10:25:55;;;;;;;5.07;0.82;;;;;;;;;;5051420;28;20035;-75
2023/08/28 10:28:23;;;;;;;7.80;1.20;;;;;;;;;;5048213;28;20031;-75
2023/08/28 10:30:51;;;;;;;6.18;1.00;;;;;;;;;;5048649;28;20024;-75
2023/08/28 10:33:21;;;;;;;5.68;1.17;;;;;;;;;;5050162;28;20029;-75
2023/08/28 10:35:51;;;;;;;8.55;1.48;;;;;;;;;;5042514;28;20035;-75
2023/08/28 10:38:19;;;;;;;8.43;1.20;;;;;;;;;;5045120;28;20029;-76
2023/08/28 10:40:47;;;;;;;6.82;1.10;;;;;;;;;;5051835;28;21059;-76
2023/08/28 10:43:14;;;;;;;5.72;1.20;;;;;;;;;;5050219;28;20047;-75
2023/08/28 10:45:41;;;;;;;7.05;1.30;;;;;;;;;;5051375;28;20094;-76
2023/08/28 10:48:07;;;;;;;7.13;1.30;;;;;;;;;;5054523;28;20129;-76
2023/08/28 10:50:37;;;;;;;6.93;1.08;;;;;;;;;;5045394;28;20037;-76
2023/08/28 10:53:04;;;;;;;6.95;1.30;;;;;;;;;;5044469;28;20031;-76
2023/08/28 10:55:30;;;;;;;8.07;1.48;;;;;;;;;;5033407;28;20347;-77
2023/08/28 10:58:01;;;;;;;6.90;1.05;;;;;;;;;;5042308;28;20730;-75
2023/08/28 11:00:28;;;;;;;5.82;0.80;;;;;;;;;;5040606;28;20074;-75
2023/08/28 11:03:08;;;;;;;7.65;1.27;;;;;;;;;;5038401;28;20043;-75
2023/08/28 11:05:34;;;;;;;8.85;1.20;;;;;;;;;;5034815;28;20033;-76
2023/08/28 11:08:04;;;;;;;7.57;1.27;;;;;;;;;;5035636;28;20016;-75
2023/08/28 11:10:30;;;;;;;6.00;1.10;;;;;;;;;;5033178;28;20033;-75
2023/08/28 11:13:03;;;;;;;6.70;1.20;;;;;;;;;;5036443;28;20391;-75
2023/08/28 11:15:30;;;;;;;5.15;1.25;;;;;;;;;;5034319;28;20210;-75
2023/08/28 11:18:15;;;;;;;4.85;1.02;;;;;;;;;;5037605;28;20025;-75
2023/08/28 11:20:41;;;;;;;5.43;1.20;;;;;;;;;;5039793;28;20068;-75
2023/08/28 11:23:08;;;;;;;7.22;1.48;;;;;;;;;;5040006;28;20308;-75
2023/08/28 11:25:38;;;;;;;6.65;1.50;;;;;;;;;;5042800;28;20021;-75
2023/08/28 11:28:04;;;;;;;4.88;1.20;;;;;;;;;;5039169;28;20114;-75
2023/08/28 11:30:30;;;;;;;8.43;1.38;;;;;;;;;;5038075;28;20082;-75
2023/08/28 11:32:57;;;;;;;6.68;1.20;;;;;;;;;;5037401;28;20424;-75
2023/08/28 11:35:23;;;;;;;6.07;1.08;;;;;;;;;;5036341;28;20029;-75
2023/08/28 11:37:51;;;;;;;8.20;1.17;;;;;;;;;;5041396;28;20077;-76
2023/08/28 11:40:24;;;;;;;7.63;1.45;;;;;;;;;;5036475;28;20044;-76
2023/08/28 11:42:51;;;;;;;7.32;1.50;;;;;;;;;;5039185;28;20402;-77
2023/08/28 11:45:20;;;;;;;5.95;1.08;;;;;;;;;;5033434;28;20078;-77
2023/08/28 11:47:47;;;;;;;8.50;1.70;;;;;;;;;;5040705;28;20040;-77
2023/08/28 11:50:13;;;;;;;8.20;1.40;;;;;;;;;;5043842;28;20035;-76
2023/08/28 11:52:39;;;;;;;9.93;1.60;;;;;;;;;;5038622;28;20037;-77
2023/08/28 11:55:06;;;;;;;8.43;1.42;;;;;;;;;;5042874;28;20040;-77
2023/08/28 11:57:33;;;;;;;8.45;1.40;;;;;;;;;;5037201;28;20329;-77
2023/08/28 12:00:00;;;;;;;5.72;1.20;;;;;;;;;;5041200;28;20028;-77
2023/08/28 12:02:27;;;;;;;6.80;1.13;;;;;;;;;;5036561;28;20203;-77
2023/08/28 12:04:53;;;;;;;6.47;1.17;;;;;;;;;;5040863;28;20033;-77
2023/08/28 12:07:21;;;;;;;7.47;1.40;;;;;;;;;;5038467;28;20090;-77
2023/08/28 12:09:47;;;;;;;5.05;1.10;;;;;;;;;;5041821;28;20059;-77
2023/08/28 12:12:17;;;;;;;5.47;1.10;;;;;;;;;;5046534;28;20147;-77
2023/08/28 12:14:44;;;;;;;6.05;1.17;;;;;;;;;;5041703;28;20201;-77
2023/08/28 12:17:24;;;;;;;6.38;1.48;;;;;;;;;;5044528;28;20287;-77
2023/08/28 12:19:50;;;;;;;6.65;1.30;;;;;;;;;;5045152;28;20056;-77
2023/08/28 12:22:20;;;;;;;6.80;1.20;;;;;;;;;;5039964;28;20032;-77
2023/08/28 12:24:47;;;;;;;6.63;1.15;;;;;;;;;;5044788;28;20808;-76
2023/08/28 12:27:14;;;;;;;10.00;1.30;;;;;;;;;;5045097;28;20177;-76
2023/08/28 12:29:43;;;;;;;4.38;1.08;;;;;;;;;;5048127;28;20059;-76
2023/08/28 12:32:15;;;;;;;6.03;1.10;;;;;;;;;;5040872;28;20039;-76
2023/08/28 12:34:42;;;;;;;8.18;1.58;;;;;;;;;;5042594;28;20523;-76
2023/08/28 12:37:09;;;;;;;7.38;1.60;;;;;;;;;;5039788;28;20178;-77
2023/08/28 12:39:36;;;;;;;4.80;1.05;;;;;;;;;;5043027;28;20036;-77
2023/08/28 12:42:03;;;;;;;6.63;1.23;;;;;;;;;;5046103;28;20064;-76
2023/08/28 12:44:30;;;;;;;6.10;1.25;;;;;;;;;;5036381;28;20063;-76
2023/08/28 12:46:57;;;;;;;5.50;1.20;;;;;;;;;;5039244;28;20065;-76
2023/08/28 12:49:23;;;;;;;6.25;1.25;;;;;;;;;;5034275;28;20057;-76
2023/08/28 12:51:50;;;;;;;9.95;1.42;;;;;;;;;;5036023;28;20044;-76
2023/08/28 12:54:19;;;;;;;6.18;1.25;;;;;;;;;;5037694;28;20122;-76
2023/08/28 12:56:49;;;;;;;5.65;1.10;;;;;;;;;;5041780;28;20062;-76
2023/08/28 12:59:16;;;;;;;5.53;1.00;;;;;;;;;;5039617;28;20128;-76
2023/08/28 13:01:42;;;;;;;6.53;1.00;;;;;;;;;;5037119;28;20032;-75
2023/08/28 13:04:08;;;;;;;5.50;1.20;;;;;;;;;;5043273;28;20051;-77
2023/08/28 13:06:35;;;;;;;7.65;1.35;;;;;;;;;;5037951;28;20029;-76
2023/08/28 13:09:01;;;;;;;5.53;1.00;;;;;;;;;;5042815;28;20021;-77
2023/08/28 13:11:27;;;;;;;5.20;1.10;;;;;;;;;;5041366;28;20639;-76
2023/08/28 13:13:53;;;;;;;4.60;1.00;;;;;;;;;;5043801;28;20555;-77
2023/08/28 13:16:20;;;;;;;5.70;1.08;;;;;;;;;;5038548;28;20036;-76
2023/08/28 13:18:46;;;;;;;4.40;1.05;;;;;;;;;;5041109;28;20043;-77
2023/08/28 13:21:12;;;;;;;6.57;1.30;;;;;;;;;;5034148;28;20036;-77
2023/08/28 13:23:38;;;;;;;5.38;1.02;;;;;;;;;;5036420;28;20558;-77
2023/08/28 13:26:04;;;;;;;8.27;1.20;;;;;;;;;;5041082;28;20509;-77
2023/08/28 13:28:30;;;;;;;6.03;1.05;;;;;;;;;;5038678;28;20025;-76
2023/08/28 13:30:57;;;;;;;5.15;1.08;;;;;;;;;;5042695;28;20117;-76
2023/08/28 13:33:23;;;;;;;7.18;1.17;;;;;;;;;;5041730;28;20038;-76
2023/08/28 13:35:49;;;;;;;6.05;0.90;;;;;;;;;;5043557;28;20298;-76
2023/08/28 13:38:16;;;;;;;5.00;1.00;;;;;;;;;;5040215;28;20033;-76
2023/08/28 13:40:42;;;;;;;3.70;0.90;;;;;;;;;;5035918;28;20725;-76
2023/08/28 13:43:09;;;;;;;4.13;0.90;;;;;;;;;;5042152;28;20048;-76
2023/08/28 13:45:35;;;;;;;6.00;0.90;;;;;;;;;;5036132;28;20088;-76
2023/08/28 13:48:01;;;;;;;5.38;0.90;;;;;;;;;;5037800;28;20047;-77
2023/08/28 13:50:28;;;;;;;4.57;1.08;;;;;;;;;;5039709;28;20032;-77
2023/08/28 13:52:54;;;;;;;5.82;1.10;;;;;;;;;;5036334;28;20458;-76
2023/08/28 13:55:20;;;;;;;5.82;1.00;;;;;;;;;;5038612;28;20439;-76
2023/08/28 13:57:49;;;;;;;6.85;1.10;;;;;;;;;;5041301;28;20442;-77
2023/08/28 14:00:16;;;;;;;6.13;1.25;;;;;;;;;;5038616;28;20463;-76
2023/08/28 14:02:43;;;;;;;6.47;1.30;;;;;;;;;;5041321;28;20040;-76
2023/08/28 14:05:13;;;;;;;7.32;1.30;;;;;;;;;;5036809;28;20106;-76
2023/08/28 14:07:40;;;;;;;6.40;1.38;;;;;;;;;;5039744;28;20103;-76
2023/08/28 14:10:06;;;;;;;6.82;1.45;;;;;;;;;;5040449;28;20726;-76
2023/08/28 14:12:32;;;;;;;7.45;0.90;;;;;;;;;;5040017;28;20032;-76
2023/08/28 14:15:00;;;;;;;6.95;0.90;;;;;;;;;;5041982;28;20071;-76
2023/08/28 14:17:26;;;;;;;6.30;1.15;;;;;;;;;;5036159;28;20020;-75
2023/08/28 14:19:53;;;;;;;5.43;0.90;;;;;;;;;;5040213;28;20036;-76
2023/08/28 14:22:19;;;;;;;8.80;1.10;;;;;;;;;;5036979;28;20315;-76
2023/08/28 14:24:45;;;;;;;4.55;1.25;;;;;;;;;;5038006;28;20040;-76
2023/08/28 14:27:11;;;;;;;4.78;1.08;;;;;;;;;;5038908;28;20229;-75
2023/08/28 14:29:37;;;;;;;4.88;1.08;;;;;;;;;;5039600;28;20743;-75
2023/08/28 14:32:03;;;;;;;5.20;1.10;;;;;;;;;;5042705;28;20036;-75
2023/08/28 14:34:29;;;;;;;5.47;0.95;;;;;;;;;;5035957;28;20160;-75
2023/08/28 14:36:56;;;;;;;8.48;1.00;;;;;;;;;;5042026;28;20039;-75
2023/08/28 14:39:22;;;;;;;6.82;1.05;;;;;;;;;;5039884;28;20441;-75
2023/08/28 14:41:48;;;;;;;5.68;0.80;;;;;;;;;;5038168;28;20052;-76
2023/08/28 14:44:14;;;;;;;5.13;1.00;;;;;;;;;;5044287;28;20064;-75